createdAt,value
2019-03-29T00:00:00.617Z,0.00
2019-03-29T00:01:54.041Z,0.00
2019-03-29T00:02:54.096Z,0.00
2019-03-29T00:04:47.441Z,0.00
2019-03-29T00:05:47.441Z,0.00
2019-03-29T00:07:41.884Z,0.00
2019-03-29T00:08:40.866Z,0.00
2019-03-29T00:10:34.284Z,0.00
2019-03-29T00:11:34.259Z,0.00
2019-03-29T00:13:27.653Z,0.00
2019-03-29T00:14:27.663Z,0.00
2019-03-29T00:16:21.081Z,0.00
2019-03-29T00:17:21.074Z,0.00
2019-03-29T00:19:14.506Z,0.00
2019-03-29T00:20:14.490Z,0.00
2019-03-29T00:22:07.951Z,0.00
2019-03-29T00:23:07.904Z,0.00
2019-03-29T00:25:01.339Z,0.00
2019-03-29T00:26:01.327Z,0.00
2019-03-29T00:27:54.735Z,0.00
2019-03-29T00:28:54.745Z,0.00
2019-03-29T00:30:48.238Z,0.00
2019-03-29T00:31:48.166Z,0.00
2019-03-29T00:33:41.542Z,0.00
2019-03-29T00:34:42.060Z,0.00
2019-03-29T00:36:34.974Z,0.00
2019-03-29T00:37:34.952Z,0.00
2019-03-29T00:39:28.351Z,0.00
2019-03-29T00:40:28.355Z,0.00
2019-03-29T00:42:22.625Z,0.00
2019-03-29T00:43:22.643Z,0.00
2019-03-29T00:45:16.056Z,0.00
2019-03-29T00:46:16.040Z,0.00
2019-03-29T00:48:09.440Z,0.00
2019-03-29T00:49:09.443Z,0.00
2019-03-29T00:51:02.895Z,0.00
2019-03-29T00:52:02.852Z,0.00
2019-03-29T00:53:56.257Z,0.00
2019-03-29T00:54:56.271Z,0.00
2019-03-29T00:56:49.687Z,0.00
2019-03-29T00:57:49.676Z,0.00
2019-03-29T00:59:43.917Z,0.00
2019-03-29T01:01:57.361Z,0.00
2019-03-29T01:02:57.360Z,0.00
2019-03-29T01:04:50.751Z,0.00
2019-03-29T01:05:50.763Z,0.00
2019-03-29T01:07:44.220Z,0.00
2019-03-29T01:08:44.185Z,0.00
2019-03-29T01:10:39.273Z,0.00
2019-03-29T01:11:39.287Z,0.00
2019-03-29T01:13:33.555Z,0.00
2019-03-29T01:14:33.550Z,0.00
2019-03-29T01:16:27.178Z,0.00
2019-03-29T01:17:26.969Z,0.00
2019-03-29T01:19:20.355Z,0.00
2019-03-29T01:20:21.188Z,0.00
2019-03-29T01:22:13.773Z,0.00
2019-03-29T01:23:13.766Z,0.00
2019-03-29T01:25:08.018Z,0.00
2019-03-29T01:26:07.164Z,0.00
2019-03-29T01:28:00.584Z,0.00
2019-03-29T01:29:00.573Z,0.00
2019-03-29T01:30:53.972Z,0.00
2019-03-29T01:31:54.229Z,0.00
2019-03-29T01:33:48.242Z,0.00
2019-03-29T01:34:48.235Z,0.00
2019-03-29T01:36:41.730Z,0.00
2019-03-29T01:37:41.644Z,0.00
2019-03-29T01:39:35.042Z,0.00
2019-03-29T01:40:35.148Z,0.00
2019-03-29T01:42:28.464Z,0.00
2019-03-29T01:43:28.436Z,0.00
2019-03-29T01:45:21.845Z,0.00
2019-03-29T01:46:21.954Z,0.00
2019-03-29T01:48:15.249Z,0.00
2019-03-29T01:49:15.890Z,0.00
2019-03-29T01:51:08.713Z,0.00
2019-03-29T01:52:08.658Z,0.00
2019-03-29T01:54:02.066Z,0.00
2019-03-29T01:55:02.075Z,0.00
2019-03-29T01:56:55.448Z,0.00
2019-03-29T01:57:55.468Z,0.00
2019-03-29T01:59:48.875Z,0.00
2019-03-29T02:00:48.869Z,0.00
2019-03-29T02:02:42.278Z,0.00
2019-03-29T02:03:42.258Z,0.00
2019-03-29T02:05:35.703Z,0.00
2019-03-29T02:06:35.674Z,0.00
2019-03-29T02:08:35.552Z,0.00
2019-03-29T02:09:30.266Z,0.00
2019-03-29T02:11:23.317Z,0.00
2019-03-29T02:12:23.323Z,0.00
2019-03-29T02:14:18.026Z,0.00
2019-03-29T02:15:17.589Z,0.00
2019-03-29T02:17:11.827Z,0.00
2019-03-29T02:18:11.834Z,0.00
2019-03-29T02:20:05.256Z,0.00
2019-03-29T02:21:05.252Z,0.00
2019-03-29T02:22:58.644Z,0.00
2019-03-29T02:23:58.650Z,0.00
2019-03-29T02:25:52.076Z,0.00
2019-03-29T02:26:52.063Z,0.00
2019-03-29T02:28:45.472Z,0.00
2019-03-29T02:29:45.459Z,0.00
2019-03-29T02:31:42.129Z,0.00
2019-03-29T02:32:38.866Z,0.00
2019-03-29T02:34:32.278Z,0.00
2019-03-29T02:35:32.331Z,0.00
2019-03-29T02:37:25.663Z,0.00
2019-03-29T02:38:25.669Z,0.00
2019-03-29T02:40:19.085Z,0.00
2019-03-29T02:41:19.613Z,0.00
2019-03-29T02:43:12.455Z,0.00
2019-03-29T02:44:12.473Z,0.00
2019-03-29T02:46:05.892Z,0.00
2019-03-29T02:47:05.882Z,0.00
2019-03-29T02:48:59.268Z,0.00
2019-03-29T02:49:59.293Z,0.00
2019-03-29T02:51:52.706Z,0.00
2019-03-29T02:52:52.684Z,0.00
2019-03-29T02:54:46.223Z,0.00
2019-03-29T02:55:46.086Z,0.00
2019-03-29T02:57:39.478Z,0.00
2019-03-29T02:58:39.486Z,0.00
2019-03-29T03:00:32.903Z,0.00
2019-03-29T03:01:32.926Z,0.00
2019-03-29T03:03:26.300Z,0.00
2019-03-29T03:04:26.315Z,0.00
2019-03-29T03:06:19.747Z,0.00
2019-03-29T03:07:19.710Z,0.00
2019-03-29T03:09:14.776Z,0.00
2019-03-29T03:10:13.102Z,0.00
2019-03-29T03:12:06.535Z,0.00
2019-03-29T03:13:06.520Z,0.00
2019-03-29T03:15:00.783Z,0.00
2019-03-29T03:16:00.786Z,0.00
2019-03-29T03:17:54.204Z,0.00
2019-03-29T03:18:54.192Z,0.00
2019-03-29T03:20:47.594Z,0.00
2019-03-29T03:21:47.588Z,0.00
2019-03-29T03:23:40.995Z,0.00
2019-03-29T03:24:40.997Z,0.00
2019-03-29T03:26:34.402Z,0.00
2019-03-29T03:27:34.394Z,0.00
2019-03-29T03:29:27.779Z,0.00
2019-03-29T03:30:27.796Z,0.00
2019-03-29T03:32:21.211Z,0.00
2019-03-29T03:33:21.201Z,0.00
2019-03-29T03:35:15.447Z,0.00
2019-03-29T03:36:15.444Z,0.00
2019-03-29T03:38:08.865Z,0.00
2019-03-29T03:39:08.867Z,0.00
2019-03-29T03:41:03.148Z,0.00
2019-03-29T03:42:03.146Z,0.00
2019-03-29T03:43:56.542Z,0.00
2019-03-29T03:44:56.546Z,0.00
2019-03-29T03:46:50.004Z,0.00
2019-03-29T03:47:49.932Z,0.00
2019-03-29T03:49:43.418Z,0.00
2019-03-29T03:50:43.376Z,0.00
2019-03-29T03:52:36.761Z,0.00
2019-03-29T03:53:36.733Z,0.00
2019-03-29T03:55:30.138Z,0.00
2019-03-29T03:56:30.252Z,0.00
2019-03-29T03:58:24.220Z,0.00
2019-03-29T03:59:24.158Z,0.00
2019-03-29T04:14:26.220Z,0.00
2019-03-29T04:15:26.150Z,0.00
2019-03-29T04:17:19.536Z,0.00
2019-03-29T04:18:19.545Z,0.00
2019-03-29T04:20:13.800Z,0.00
2019-03-29T04:21:13.794Z,0.00
2019-03-29T04:23:07.210Z,0.00
2019-03-29T04:24:07.197Z,0.00
2019-03-29T04:26:01.450Z,0.00
2019-03-29T04:27:01.447Z,0.00
2019-03-29T04:29:04.105Z,0.00
2019-03-29T04:29:54.849Z,0.00
2019-03-29T04:31:49.098Z,0.00
2019-03-29T04:32:49.109Z,0.00
2019-03-29T04:34:42.536Z,0.00
2019-03-29T04:35:42.517Z,0.00
2019-03-29T04:37:35.934Z,0.00
2019-03-29T04:38:35.934Z,0.00
2019-03-29T04:40:29.333Z,0.00
2019-03-29T04:41:29.323Z,0.00
2019-03-29T04:43:23.604Z,0.00
2019-03-29T04:44:23.591Z,0.00
2019-03-29T04:46:17.009Z,0.00
2019-03-29T04:47:17.004Z,0.00
2019-03-29T04:49:10.416Z,0.00
2019-03-29T04:50:10.403Z,0.00
2019-03-29T04:52:03.803Z,0.00
2019-03-29T04:53:03.806Z,0.00
2019-03-29T04:54:57.217Z,0.00
2019-03-29T04:55:57.207Z,0.00
2019-03-29T04:57:50.596Z,5.63
2019-03-29T04:58:50.648Z,5.63
2019-03-29T05:00:44.031Z,5.63
2019-03-29T05:01:44.009Z,11.25
2019-03-29T05:03:37.427Z,11.25
2019-03-29T05:04:37.413Z,11.25
2019-03-29T05:06:30.881Z,16.88
2019-03-29T05:07:30.813Z,16.88
2019-03-29T05:09:24.223Z,22.50
2019-03-29T05:10:24.227Z,22.50
2019-03-29T05:12:17.617Z,28.13
2019-03-29T05:13:17.611Z,28.13
2019-03-29T05:15:11.033Z,28.13
2019-03-29T05:16:11.018Z,33.75
2019-03-29T05:18:05.257Z,39.38
2019-03-29T05:19:05.263Z,39.38
2019-03-29T05:20:58.684Z,39.38
2019-03-29T05:21:58.677Z,45.00
2019-03-29T05:23:52.056Z,45.00
2019-03-29T05:24:52.070Z,45.00
2019-03-29T05:26:45.477Z,56.25
2019-03-29T05:27:45.463Z,56.25
2019-03-29T05:29:38.873Z,67.50
2019-03-29T05:30:38.872Z,67.50
2019-03-29T05:32:32.364Z,73.13
2019-03-29T05:33:32.291Z,73.13
2019-03-29T05:35:25.781Z,78.75
2019-03-29T05:36:25.730Z,90.00
2019-03-29T05:38:19.139Z,95.63
2019-03-29T06:16:13.240Z,185.63
2019-03-29T06:17:13.231Z,146.25
2019-03-29T06:19:06.645Z,202.50
2019-03-29T06:20:06.630Z,185.63
2019-03-29T06:22:00.023Z,213.75
2019-03-29T06:23:00.038Z,180.00
2019-03-29T06:24:53.462Z,180.00
2019-03-29T06:25:53.447Z,191.25
2019-03-29T06:27:46.844Z,185.63
2019-03-29T06:28:46.851Z,180.00
2019-03-29T06:30:40.277Z,219.38
2019-03-29T06:31:40.259Z,185.63
2019-03-29T06:33:33.668Z,180.00
2019-03-29T06:34:33.670Z,213.75
2019-03-29T06:36:27.075Z,275.63
2019-03-29T06:37:27.076Z,258.75
2019-03-29T06:39:21.409Z,264.38
2019-03-29T06:40:20.485Z,298.13
2019-03-29T06:42:14.726Z,354.38
2019-03-29T06:43:14.725Z,270.00
2019-03-29T06:45:08.192Z,253.13
2019-03-29T06:46:08.125Z,258.75
2019-03-29T06:48:02.366Z,286.88
2019-03-29T06:49:02.398Z,247.50
2019-03-29T06:50:55.788Z,241.88
2019-03-29T06:51:55.782Z,331.88
2019-03-29T06:53:52.356Z,438.75
2019-03-29T06:54:49.182Z,281.25
2019-03-29T06:56:42.579Z,303.75
2019-03-29T06:57:42.588Z,421.88
2019-03-29T06:59:35.988Z,326.25
2019-03-29T07:00:35.993Z,264.38
2019-03-29T07:02:29.384Z,579.38
2019-03-29T07:03:29.391Z,489.38
2019-03-29T07:05:22.800Z,382.50
2019-03-29T07:06:22.855Z,590.63
2019-03-29T07:08:16.197Z,427.50
2019-03-29T07:09:16.191Z,393.75
2019-03-29T07:11:17.262Z,556.88
2019-03-29T07:12:09.596Z,523.13
2019-03-29T07:14:03.019Z,613.13
2019-03-29T07:15:03.009Z,410.63
2019-03-29T07:16:56.413Z,348.75
2019-03-29T07:17:56.422Z,433.13
2019-03-29T07:19:49.829Z,731.25
2019-03-29T07:20:49.829Z,658.13
2019-03-29T07:22:43.228Z,466.88
2019-03-29T07:23:43.245Z,540.00
2019-03-29T07:25:36.706Z,405.00
2019-03-29T07:26:36.653Z,393.75
2019-03-29T07:28:30.894Z,500.63
2019-03-29T07:29:30.895Z,781.88
2019-03-29T07:31:24.324Z,382.50
2019-03-29T07:32:24.416Z,596.25
2019-03-29T07:34:17.715Z,736.88
2019-03-29T07:35:17.729Z,798.75
2019-03-29T07:37:11.147Z,427.50
2019-03-29T07:38:11.145Z,444.38
2019-03-29T07:40:04.678Z,523.13
2019-03-29T07:41:04.554Z,540.00
2019-03-29T07:42:57.967Z,568.13
2019-03-29T07:43:57.975Z,635.63
2019-03-29T07:45:51.396Z,646.88
2019-03-29T07:46:51.375Z,590.63
2019-03-29T07:48:44.791Z,714.38
2019-03-29T07:49:44.788Z,708.75
2019-03-29T07:51:39.064Z,1023.75
2019-03-29T07:52:39.049Z,905.63
2019-03-29T07:54:32.451Z,1260.00
2019-03-29T07:55:32.460Z,995.63
2019-03-29T07:57:25.874Z,967.50
2019-03-29T07:58:25.875Z,1192.50
2019-03-29T08:00:20.520Z,2503.13
2019-03-29T08:01:19.275Z,2176.88
2019-03-29T08:03:12.703Z,2677.50
2019-03-29T08:04:12.857Z,1935.00
2019-03-29T08:06:06.191Z,2120.63
2019-03-29T08:07:06.248Z,1243.13
2019-03-29T08:09:00.930Z,2025.00
2019-03-29T08:09:59.525Z,1636.88
2019-03-29T08:11:52.984Z,2508.75
2019-03-29T08:12:52.936Z,1760.63
2019-03-29T08:14:46.377Z,2576.25
2019-03-29T08:15:46.447Z,1507.50
2019-03-29T08:17:39.768Z,2643.75
2019-03-29T08:18:39.767Z,2390.63
2019-03-29T08:20:43.961Z,2199.38
2019-03-29T08:21:33.208Z,1040.63
2019-03-29T08:23:28.952Z,1018.13
2019-03-29T08:24:27.058Z,1715.63
2019-03-29T08:26:20.580Z,2761.88
2019-03-29T08:27:20.372Z,1479.38
2019-03-29T08:29:14.183Z,1591.88
2019-03-29T08:30:13.896Z,2643.75
2019-03-29T08:32:08.464Z,2520.00
2019-03-29T08:33:08.283Z,3116.25
2019-03-29T08:35:01.602Z,2356.88
2019-03-29T08:36:01.607Z,2621.25
2019-03-29T08:37:55.287Z,1113.75
2019-03-29T08:38:55.043Z,3470.63
2019-03-29T08:40:48.420Z,860.63
2019-03-29T08:41:59.512Z,1456.88
2019-03-29T08:43:41.549Z,3093.75
2019-03-29T08:44:41.535Z,883.13
2019-03-29T08:46:34.937Z,3858.75
2019-03-29T08:47:34.962Z,3487.50
2019-03-29T08:49:28.381Z,3774.38
2019-03-29T08:50:28.390Z,3808.13
2019-03-29T08:52:21.807Z,1850.63
2019-03-29T08:53:21.823Z,3881.25
2019-03-29T08:55:17.423Z,1501.88
2019-03-29T08:56:15.262Z,4303.13
2019-03-29T08:58:08.686Z,4078.13
2019-03-29T08:59:08.682Z,4196.25
2019-03-29T09:01:02.100Z,4460.63
2019-03-29T09:02:02.134Z,4387.50
2019-03-29T09:04:05.122Z,4297.50
2019-03-29T09:04:55.550Z,4207.50
2019-03-29T09:06:53.590Z,4055.63
2019-03-29T09:07:49.303Z,3870.00
2019-03-29T09:09:46.244Z,3903.75
2019-03-29T09:10:42.488Z,4038.75
2019-03-29T09:12:36.498Z,1721.25
2019-03-29T09:13:36.154Z,3020.63
2019-03-29T09:15:29.370Z,1276.88
2019-03-29T09:16:29.384Z,1051.88
2019-03-29T09:18:25.881Z,1524.38
2019-03-29T09:19:23.663Z,4578.75
2019-03-29T09:21:17.152Z,4376.25
2019-03-29T09:22:17.097Z,4421.25
2019-03-29T09:24:21.282Z,4561.88
2019-03-29T09:25:10.557Z,1749.38
2019-03-29T09:27:03.973Z,2846.25
2019-03-29T09:28:03.998Z,4466.25
2019-03-29T09:29:57.459Z,2176.88
2019-03-29T09:30:57.451Z,4865.63
2019-03-29T09:32:51.759Z,1828.13
2019-03-29T09:33:50.885Z,4910.63
2019-03-29T09:35:44.336Z,4854.38
2019-03-29T09:36:44.420Z,4516.88
2019-03-29T09:38:38.621Z,4595.63
2019-03-29T09:39:38.641Z,4545.00
2019-03-29T09:41:32.903Z,4291.88
2019-03-29T09:42:32.919Z,4421.25
2019-03-29T09:44:26.388Z,4438.13
2019-03-29T09:45:26.353Z,4044.38
2019-03-29T09:47:19.796Z,1366.88
2019-03-29T09:48:19.794Z,1248.75
2019-03-29T09:50:13.266Z,1175.63
2019-03-29T09:51:13.252Z,1119.38
2019-03-29T09:53:06.666Z,1153.13
2019-03-29T09:54:06.689Z,1130.63
2019-03-29T09:56:00.146Z,1468.13
2019-03-29T09:57:00.133Z,871.88
2019-03-29T09:58:54.211Z,1676.25
2019-03-29T09:59:53.955Z,1636.88
2019-03-29T10:01:47.001Z,2221.88
2019-03-29T10:02:47.011Z,4078.13
2019-03-29T10:04:40.413Z,1366.88
2019-03-29T10:05:40.442Z,1209.38
2019-03-29T10:07:34.792Z,1288.13
2019-03-29T10:08:34.743Z,1260.00
2019-03-29T10:10:28.300Z,1293.75
2019-03-29T10:11:28.169Z,1316.25
2019-03-29T10:13:21.579Z,1046.25
2019-03-29T10:14:21.608Z,995.63
2019-03-29T10:16:15.023Z,1355.63
2019-03-29T10:17:15.029Z,1288.13
2019-03-29T10:19:08.466Z,1260.00
2019-03-29T10:20:08.539Z,1254.38
2019-03-29T10:22:01.917Z,1327.50
2019-03-29T10:23:01.924Z,1338.75
2019-03-29T10:24:55.338Z,1575.00
2019-03-29T10:25:58.492Z,1608.75
2019-03-29T10:27:48.806Z,1501.88
2019-03-29T10:28:48.784Z,1569.38
2019-03-29T10:30:46.039Z,1608.75
2019-03-29T10:31:42.219Z,2328.75
2019-03-29T10:33:35.626Z,5760.00
2019-03-29T10:34:37.549Z,5551.88
2019-03-29T10:36:29.074Z,5641.88
2019-03-29T10:37:29.090Z,5388.75
2019-03-29T10:39:26.008Z,5686.88
2019-03-29T10:40:22.530Z,5844.38
2019-03-29T10:42:15.975Z,5388.75
2019-03-29T10:43:15.975Z,5169.38
2019-03-29T10:45:09.397Z,5045.63
2019-03-29T10:46:09.424Z,5703.75
2019-03-29T10:48:02.860Z,5709.38
2019-03-29T10:49:02.866Z,1310.63
2019-03-29T10:50:56.319Z,1175.63
2019-03-29T10:51:56.302Z,1231.88
2019-03-29T10:53:49.728Z,5928.75
2019-03-29T10:54:50.120Z,5743.13
2019-03-29T10:56:43.197Z,5900.63
2019-03-29T10:57:43.194Z,5889.38
2019-03-29T10:59:36.648Z,1642.50
2019-03-29T11:00:36.661Z,6165.00
2019-03-29T11:02:30.094Z,2463.75
2019-03-29T11:03:30.090Z,1569.38
2019-03-29T11:05:23.497Z,3228.75
2019-03-29T11:06:23.543Z,5917.50
2019-03-29T11:08:16.968Z,2041.88
2019-03-29T11:09:16.981Z,5788.13
2019-03-29T11:11:10.399Z,5911.88
2019-03-29T11:12:10.428Z,5990.63
2019-03-29T11:14:03.855Z,5636.25
2019-03-29T11:15:06.621Z,5484.38
2019-03-29T11:16:57.354Z,5810.63
2019-03-29T11:17:57.323Z,5782.50
2019-03-29T11:19:50.749Z,5923.13
2019-03-29T11:20:50.797Z,5911.88
2019-03-29T11:22:44.219Z,2306.25
2019-03-29T11:23:44.229Z,1276.88
2019-03-29T11:25:37.657Z,6035.63
2019-03-29T11:26:37.705Z,6035.63
2019-03-29T11:28:31.141Z,5850.00
2019-03-29T11:29:31.135Z,5754.38
2019-03-29T11:31:25.750Z,5799.38
2019-03-29T11:32:25.452Z,5681.25
2019-03-29T11:34:21.010Z,5878.13
2019-03-29T11:35:18.904Z,6041.25
2019-03-29T11:37:12.405Z,6063.75
2019-03-29T11:38:12.387Z,5866.88
2019-03-29T11:40:05.831Z,5771.25
2019-03-29T11:41:05.833Z,5743.13
2019-03-29T11:42:59.292Z,5698.13
2019-03-29T11:43:59.300Z,5681.25
2019-03-29T11:45:52.799Z,6035.63
2019-03-29T11:46:52.817Z,5889.38
2019-03-29T11:48:46.262Z,5923.13
2019-03-29T11:49:46.393Z,5979.38
2019-03-29T11:51:39.699Z,5850.00
2019-03-29T11:52:39.725Z,5501.25
2019-03-29T11:54:33.193Z,5540.63
2019-03-29T11:55:33.207Z,5321.25
2019-03-29T11:57:26.676Z,5771.25
2019-03-29T11:58:26.664Z,5793.75
2019-03-29T12:00:20.116Z,5321.25
2019-03-29T12:01:20.130Z,5276.25
2019-03-29T12:03:13.569Z,5360.63
2019-03-29T12:04:13.564Z,5518.13
2019-03-29T12:06:07.010Z,5664.38
2019-03-29T12:07:07.074Z,5771.25
2019-03-29T12:09:00.474Z,5765.63
2019-03-29T12:10:00.499Z,5580.00
2019-03-29T12:11:53.921Z,5850.00
2019-03-29T12:12:53.944Z,5754.38
2019-03-29T12:14:48.306Z,5895.00
2019-03-29T12:15:48.248Z,5861.25
2019-03-29T12:17:41.674Z,5653.13
2019-03-29T12:18:41.724Z,5720.63
2019-03-29T12:20:35.999Z,5619.38
2019-03-29T12:21:36.015Z,5861.25
2019-03-29T12:23:29.427Z,5996.25
2019-03-29T12:24:29.487Z,6024.38
2019-03-29T12:26:22.912Z,5776.88
2019-03-29T12:27:22.927Z,5934.38
2019-03-29T12:29:16.373Z,5478.75
2019-03-29T12:30:30.689Z,5040.00
2019-03-29T12:32:10.652Z,5557.50
2019-03-29T12:33:10.692Z,5681.25
2019-03-29T12:35:04.142Z,5613.75
2019-03-29T12:36:04.153Z,5743.13
2019-03-29T12:37:57.575Z,5979.38
2019-03-29T12:38:57.628Z,5956.88
2019-03-29T12:40:51.055Z,5574.38
2019-03-29T12:41:51.077Z,5630.63
2019-03-29T12:43:54.985Z,5776.88
2019-03-29T12:44:44.537Z,5546.25
2019-03-29T12:46:38.842Z,5551.88
2019-03-29T12:47:38.846Z,5546.25
2019-03-29T12:49:32.292Z,5647.50
2019-03-29T12:50:32.387Z,5433.75
2019-03-29T12:52:25.783Z,5000.63
2019-03-29T12:53:25.777Z,5040.00
2019-03-29T12:55:19.222Z,5231.25
2019-03-29T12:56:19.235Z,5394.38
2019-03-29T12:58:12.676Z,5670.00
2019-03-29T12:59:12.703Z,5720.63
2019-03-29T13:01:06.159Z,5310.00
2019-03-29T13:02:06.187Z,5293.13
2019-03-29T13:03:59.622Z,5473.13
2019-03-29T13:04:59.662Z,5456.25
2019-03-29T13:06:53.132Z,5085.00
2019-03-29T13:07:53.414Z,4606.88
2019-03-29T13:09:46.594Z,4635.00
2019-03-29T13:10:46.664Z,4921.88
2019-03-29T13:12:40.090Z,5107.50
2019-03-29T13:13:40.128Z,5107.50
2019-03-29T13:15:33.680Z,5062.50
2019-03-29T13:16:33.601Z,5366.25
2019-03-29T13:18:27.163Z,5113.13
2019-03-29T13:19:27.087Z,4629.38
2019-03-29T13:21:20.520Z,4246.88
2019-03-29T13:22:20.552Z,4263.75
2019-03-29T13:24:16.039Z,3836.25
2019-03-29T13:25:14.013Z,4038.75
2019-03-29T13:27:07.504Z,5191.88
2019-03-29T13:28:07.480Z,5214.38
2019-03-29T13:30:01.176Z,5107.50
2019-03-29T13:31:01.211Z,5180.63
2019-03-29T13:32:55.564Z,5090.63
2019-03-29T13:33:55.555Z,5124.38
2019-03-29T13:35:49.026Z,5152.50
2019-03-29T13:36:49.016Z,5068.13
2019-03-29T13:38:42.464Z,4995.00
2019-03-29T13:39:42.477Z,4657.50
2019-03-29T13:41:35.926Z,4303.13
2019-03-29T13:42:35.948Z,4786.88
2019-03-29T13:44:29.366Z,4871.25
2019-03-29T13:45:29.412Z,4775.63
2019-03-29T13:47:22.841Z,4938.75
2019-03-29T13:48:22.862Z,4865.63
2019-03-29T13:50:15.822Z,4674.38
2019-03-29T13:51:15.835Z,4820.63
2019-03-29T13:53:09.724Z,4786.88
2019-03-29T13:54:09.544Z,4820.63
2019-03-29T13:56:03.177Z,4674.38
2019-03-29T13:57:02.792Z,4601.25
2019-03-29T13:58:56.241Z,4668.75
2019-03-29T13:59:56.314Z,4505.63
2019-03-29T14:01:49.695Z,4275.00
2019-03-29T14:02:49.694Z,4511.25
2019-03-29T14:04:43.133Z,4623.75
2019-03-29T14:05:43.169Z,4584.38
2019-03-29T14:07:36.611Z,4584.38
2019-03-29T14:08:36.630Z,4100.63
2019-03-29T14:10:30.070Z,4280.63
2019-03-29T14:11:30.101Z,4365.00
2019-03-29T14:13:23.546Z,4365.00
2019-03-29T14:14:37.380Z,4438.13
2019-03-29T14:16:16.991Z,4483.13
2019-03-29T14:17:17.013Z,4432.50
2019-03-29T14:19:10.507Z,4111.88
2019-03-29T14:20:10.501Z,4213.13
2019-03-29T14:22:03.948Z,4438.13
2019-03-29T14:23:03.952Z,4280.63
2019-03-29T14:24:57.412Z,4263.75
2019-03-29T14:25:57.420Z,4297.50
2019-03-29T14:27:52.490Z,4123.13
2019-03-29T14:30:05.664Z,4179.38
2019-03-29T14:41:17.949Z,3757.50
2019-03-29T14:42:17.964Z,3825.00
2019-03-29T14:44:12.250Z,3819.38
2019-03-29T14:45:12.284Z,3870.00
2019-03-29T14:47:05.703Z,3870.00
2019-03-29T14:48:05.738Z,3858.75
2019-03-29T14:49:59.161Z,3656.25
2019-03-29T14:50:59.191Z,3650.63
2019-03-29T14:52:52.658Z,3408.75
2019-03-29T14:53:52.636Z,3442.50
2019-03-29T14:55:46.074Z,3526.88
2019-03-29T14:56:46.107Z,3504.38
2019-03-29T14:58:39.597Z,3358.13
2019-03-29T14:59:39.566Z,3386.25
2019-03-29T15:01:32.994Z,3296.25
2019-03-29T15:02:33.030Z,3290.63
2019-03-29T15:04:26.476Z,3183.75
2019-03-29T15:05:26.484Z,3172.50
2019-03-29T15:07:19.918Z,3116.25
2019-03-29T15:08:19.943Z,3110.63
2019-03-29T15:10:13.410Z,2908.13
2019-03-29T15:11:22.330Z,2857.50
2019-03-29T15:13:06.859Z,3071.25
2019-03-29T15:14:06.964Z,3071.25
2019-03-29T15:16:00.374Z,2863.13
2019-03-29T15:17:00.356Z,2880.00
2019-03-29T15:18:53.821Z,2739.38
2019-03-29T15:19:53.817Z,2818.13
2019-03-29T15:21:47.292Z,2885.63
2019-03-29T15:22:47.288Z,2722.50
2019-03-29T15:24:40.754Z,2604.38
2019-03-29T15:25:41.077Z,2626.88
2019-03-29T15:27:34.169Z,2542.50
2019-03-29T15:28:37.259Z,2317.50
2019-03-29T15:30:29.405Z,2115.00
2019-03-29T15:31:29.412Z,2446.88
2019-03-29T15:33:22.865Z,2272.50
2019-03-29T15:34:22.884Z,2244.38
2019-03-29T15:36:16.419Z,2199.38
2019-03-29T15:37:16.356Z,2188.13
2019-03-29T15:39:09.841Z,1057.50
2019-03-29T15:40:09.785Z,663.75
2019-03-29T15:42:03.247Z,635.63
2019-03-29T15:43:03.246Z,624.38
2019-03-29T15:44:56.691Z,613.13
2019-03-29T15:45:56.694Z,601.88
2019-03-29T15:47:50.109Z,579.38
2019-03-29T15:48:50.149Z,568.13
2019-03-29T15:50:43.947Z,545.63
2019-03-29T15:51:43.943Z,534.38
2019-03-29T15:53:37.362Z,523.13
2019-03-29T15:54:37.378Z,511.88
2019-03-29T15:56:30.845Z,495.00
2019-03-29T15:57:30.822Z,483.75
2019-03-29T15:59:24.242Z,466.88
2019-03-29T16:00:24.275Z,455.63
2019-03-29T16:02:17.701Z,444.38
2019-03-29T16:03:17.764Z,438.75
2019-03-29T16:05:11.140Z,421.88
2019-03-29T16:06:11.155Z,416.25
2019-03-29T16:08:05.436Z,405.00
2019-03-29T16:09:05.420Z,399.38
2019-03-29T16:10:58.861Z,388.13
2019-03-29T16:11:58.861Z,382.50
2019-03-29T16:13:52.287Z,371.25
2019-03-29T16:14:52.289Z,365.63
2019-03-29T16:16:46.086Z,360.00
2019-03-29T16:17:45.733Z,354.38
2019-03-29T16:19:40.204Z,343.13
2019-03-29T16:20:40.007Z,337.50
2019-03-29T16:22:34.479Z,326.25
2019-03-29T16:23:34.272Z,320.63
2019-03-29T16:25:27.687Z,315.00
2019-03-29T16:26:27.699Z,309.38
2019-03-29T16:28:21.147Z,303.75
2019-03-29T16:29:21.140Z,303.75
2019-03-29T16:31:14.568Z,292.50
2019-03-29T16:32:14.574Z,292.50
2019-03-29T16:34:08.013Z,286.88
2019-03-29T16:35:07.996Z,281.25
2019-03-29T16:37:01.530Z,275.63
2019-03-29T16:38:01.437Z,270.00
2019-03-29T16:39:54.919Z,264.38
2019-03-29T16:40:54.872Z,264.38
2019-03-29T16:42:48.362Z,253.13
2019-03-29T16:43:48.280Z,253.13
2019-03-29T16:45:47.700Z,241.88
2019-03-29T16:46:41.715Z,236.25
2019-03-29T16:48:35.972Z,230.63
2019-03-29T16:49:35.975Z,225.00
2019-03-29T16:51:29.393Z,219.38
2019-03-29T16:52:29.400Z,213.75
2019-03-29T16:54:22.851Z,208.13
2019-03-29T16:55:22.838Z,202.50
2019-03-29T16:57:16.274Z,196.88
2019-03-29T16:58:16.272Z,191.25
2019-03-29T17:00:12.168Z,185.63
2019-03-29T17:01:09.680Z,180.00
2019-03-29T17:03:03.149Z,174.38
2019-03-29T17:04:03.281Z,168.75
2019-03-29T17:05:56.546Z,157.50
2019-03-29T17:06:56.602Z,157.50
2019-03-29T17:08:50.119Z,146.25
2019-03-29T17:09:50.111Z,146.25
2019-03-29T17:11:43.518Z,135.00
2019-03-29T17:12:43.531Z,129.38
2019-03-29T17:14:36.972Z,123.75
2019-03-29T17:15:36.951Z,118.13
2019-03-29T17:17:30.365Z,112.50
2019-03-29T17:18:30.381Z,106.88
2019-03-29T17:20:23.829Z,101.25
2019-03-29T17:21:23.835Z,95.63
2019-03-29T17:23:17.240Z,90.00
2019-03-29T17:24:17.254Z,84.38
2019-03-29T17:26:10.629Z,78.75
2019-03-29T17:27:10.653Z,73.13
2019-03-29T17:29:04.113Z,67.50
2019-03-29T17:31:57.507Z,56.25
2019-03-29T17:32:57.543Z,50.63
2019-03-29T17:35:15.121Z,45.00
2019-03-29T17:35:50.946Z,45.00
2019-03-29T17:37:53.528Z,39.38
2019-03-29T17:38:45.221Z,33.75
2019-03-29T17:45:47.360Z,16.88
2019-03-29T17:46:47.333Z,16.88
2019-03-29T17:48:40.735Z,11.25
2019-03-29T17:49:40.750Z,11.25
2019-03-29T17:51:34.279Z,5.63
2019-03-29T17:52:34.200Z,5.63
2019-03-29T17:54:27.601Z,5.63
2019-03-29T17:55:27.605Z,5.63
2019-03-29T17:57:21.005Z,0.00
2019-03-29T17:58:21.017Z,0.00
2019-03-29T18:00:14.434Z,0.00
2019-03-29T18:01:14.445Z,0.00
2019-03-29T18:03:07.828Z,0.00
2019-03-29T18:04:07.872Z,0.00
2019-03-29T18:06:01.275Z,0.00
2019-03-29T18:07:01.271Z,0.00
2019-03-29T18:08:55.535Z,0.00
2019-03-29T18:09:55.533Z,0.00
2019-03-29T18:11:49.150Z,0.00
2019-03-29T18:12:49.043Z,0.00
2019-03-29T18:14:42.379Z,0.00
2019-03-29T18:15:42.359Z,0.00
2019-03-29T18:17:35.813Z,0.00
2019-03-29T18:18:35.778Z,0.00
2019-03-29T18:20:29.217Z,0.00
2019-03-29T18:21:29.197Z,0.00
2019-03-29T18:23:24.908Z,0.00
2019-03-29T18:24:22.625Z,0.00
2019-03-29T18:26:16.081Z,0.00
2019-03-29T18:27:16.045Z,0.00
2019-03-29T18:29:09.441Z,0.00
2019-03-29T18:30:09.469Z,0.00
2019-03-29T18:32:02.994Z,0.00
2019-03-29T18:33:02.887Z,0.00
2019-03-29T18:34:56.285Z,0.00
2019-03-29T18:35:56.423Z,0.00
2019-03-29T18:37:49.744Z,0.00
2019-03-29T18:38:49.724Z,0.00
2019-03-29T18:40:43.243Z,0.00
2019-03-29T18:41:43.157Z,0.00
2019-03-29T18:43:36.589Z,0.00
2019-03-29T18:44:36.585Z,0.00
2019-03-29T18:46:43.661Z,0.00
2019-03-29T18:47:30.089Z,0.00
2019-03-29T18:49:24.273Z,0.00
2019-03-29T18:50:24.437Z,0.00
2019-03-29T18:52:17.702Z,0.00
2019-03-29T18:53:17.691Z,0.00
2019-03-29T18:55:11.179Z,0.00
2019-03-29T18:56:11.107Z,0.00
2019-03-29T18:58:05.937Z,0.00
2019-03-29T18:59:04.517Z,0.00
2019-03-29T19:00:57.923Z,0.00
2019-03-29T19:01:57.923Z,0.00
2019-03-29T19:03:51.358Z,0.00
2019-03-29T19:04:51.357Z,0.00
2019-03-29T19:06:44.779Z,0.00
2019-03-29T19:07:44.765Z,0.00
2019-03-29T19:09:38.188Z,0.00
2019-03-29T19:10:38.192Z,0.00
2019-03-29T19:12:31.665Z,0.00
2019-03-29T19:13:31.625Z,0.00
2019-03-29T19:15:25.030Z,0.00
2019-03-29T19:16:25.052Z,0.00
2019-03-29T19:18:18.516Z,0.00
2019-03-29T19:19:18.504Z,0.00
2019-03-29T19:21:11.921Z,0.00